Time;durP1;ratioP1;P1;durP2;ratioP2;P2;SDS_P1;SDS_P2;PMS_P1;PMS_P2;Temp;Humidity;BMP_temperature;BMP_pressure;BME280_temperature;BME280_humidity;BME280_pressure;Samples;Min_cycle;Max_cycle;Signal;HPM_P1;HPM_P2
2023/10/05 00:01:31;;;;;;;22.63;16.25;;;5.30;99.90;;;;;;5071384;28;20032;-80
2023/10/05 00:03:58;;;;;;;20.58;15.05;;;5.30;99.90;;;;;;5071991;28;20591;-80
2023/10/05 00:06:24;;;;;;;17.88;14.10;;;5.30;99.90;;;;;;5072140;28;20086;-86
2023/10/05 00:08:52;;;;;;;21.45;14.57;;;5.20;99.90;;;;;;5058169;28;20131;-80
2023/10/05 00:11:23;;;;;;;18.85;14.82;;;5.20;99.90;;;;;;5046338;28;20422;-85
2023/10/05 00:13:56;;;;;;;23.42;14.55;;;5.20;99.90;;;;;;5052629;28;20462;-86
2023/10/05 00:16:22;;;;;;;17.67;14.60;;;5.20;99.90;;;;;;5052604;28;20489;-86
2023/10/05 00:18:52;;;;;;;19.95;15.40;;;5.20;99.90;;;;;;5072176;28;20078;-86
2023/10/05 00:21:20;;;;;;;24.17;15.13;;;5.20;99.90;;;;;;5054944;28;20021;-80
2023/10/05 00:23:50;;;;;;;19.35;14.57;;;5.20;99.90;;;;;;5043925;28;20017;-79
2023/10/05 00:26:18;;;;;;;21.35;14.35;;;5.20;99.90;;;;;;5054154;28;20478;-86
2023/10/05 00:28:53;;;;;;;19.83;13.10;;;5.20;99.90;;;;;;5053593;28;20457;-86
2023/10/05 00:31:23;;;;;;;19.70;13.30;;;5.20;99.90;;;;;;5051411;28;20493;-85
2023/10/05 00:33:55;;;;;;;18.08;13.10;;;5.10;99.90;;;;;;5043962;28;20447;-79
2023/10/05 00:36:24;;;;;;;19.33;13.95;;;5.10;99.90;;;;;;5052270;28;20532;-85
2023/10/05 00:38:50;;;;;;;18.05;13.40;;;5.10;99.90;;;;;;5052330;28;20059;-79
2023/10/05 00:41:16;;;;;;;27.10;18.00;;;5.00;99.90;;;;;;5052734;28;20104;-79
2023/10/05 00:43:46;;;;;;;27.23;19.73;;;5.00;99.90;;;;;;5054326;28;20482;-86
2023/10/05 00:46:12;;;;;;;32.95;19.00;;;5.00;99.90;;;;;;5053093;28;20490;-85
2023/10/05 00:49:00;;;;;;;25.30;17.27;;;5.00;99.90;;;;;;5071214;28;20052;-85
2023/10/05 00:51:30;;;;;;;24.35;16.52;;;5.00;99.90;;;;;;5069912;28;20044;-78
2023/10/05 00:53:58;;;;;;;25.15;17.48;;;5.00;99.90;;;;;;5071894;28;20032;-85
2023/10/05 00:56:24;;;;;;;25.05;15.93;;;5.00;99.90;;;;;;5056164;28;20414;-86
2023/10/05 00:58:56;;;;;;;17.23;12.88;;;5.00;99.90;;;;;;5051763;28;20052;-86
2023/10/05 01:01:28;;;;;;;17.67;12.57;;;5.00;99.90;;;;;;5049239;28;20481;-85
2023/10/05 01:06:39;;;;;;;17.42;13.10;;;5.10;99.90;;;;;;5072098;28;20434;-79
2023/10/05 01:11:54;;;;;;;19.75;13.27;;;5.10;99.90;;;;;;5072480;28;20063;-79
2023/10/05 01:14:25;;;;;;;20.88;14.40;;;5.20;99.90;;;;;;5070093;28;20379;-83
2023/10/05 01:16:54;;;;;;;23.55;16.08;;;5.10;99.90;;;;;;5071076;28;20385;-85
2023/10/05 01:19:19;;;;;;;21.00;14.73;;;5.10;99.90;;;;;;5066345;28;20495;-84
2023/10/05 01:21:45;;;;;;;24.23;15.57;;;5.10;99.90;;;;;;5052689;28;20036;-78
2023/10/05 01:24:13;;;;;;;25.85;15.60;;;5.10;99.90;;;;;;5051642;28;20135;-79
2023/10/05 01:26:40;;;;;;;21.35;14.48;;;5.10;99.90;;;;;;5053112;28;20025;-85
2023/10/05 01:29:06;;;;;;;23.83;15.60;;;5.00;99.90;;;;;;5052380;28;20068;-79
2023/10/05 01:31:32;;;;;;;21.75;14.57;;;5.00;99.90;;;;;;5057870;28;20045;-85
2023/10/05 01:33:59;;;;;;;23.33;14.77;;;5.00;99.90;;;;;;5068392;28;20024;-84
2023/10/05 01:36:25;;;;;;;19.75;14.10;;;5.00;99.90;;;;;;5072524;28;20020;-85
2023/10/05 01:38:54;;;;;;;19.38;13.77;;;5.00;99.90;;;;;;5070586;28;20048;-79
2023/10/05 01:41:23;;;;;;;22.05;13.77;;;5.00;99.90;;;;;;5073924;28;20028;-79
2023/10/05 01:43:49;;;;;;;18.10;13.18;;;5.00;99.90;;;;;;5074118;28;20013;-84
2023/10/05 01:46:15;;;;;;;19.40;14.15;;;5.00;99.90;;;;;;5058919;28;20033;-78
2023/10/05 01:48:41;;;;;;;19.38;13.13;;;5.00;99.90;;;;;;5069707;28;20149;-85
2023/10/05 01:51:15;;;;;;;19.55;13.90;;;5.00;99.90;;;;;;5056019;28;20025;-85
2023/10/05 01:53:42;;;;;;;22.23;14.25;;;5.10;99.90;;;;;;5056594;28;20123;-79
2023/10/05 01:56:23;;;;;;;20.75;14.02;;;5.00;99.90;;;;;;5057251;28;20462;-79
2023/10/05 01:58:54;;;;;;;20.20;13.57;;;5.10;99.90;;;;;;5076001;28;20028;-85
2023/10/05 02:01:21;;;;;;;21.48;13.50;;;5.10;99.90;;;;;;5071147;28;20029;-79
2023/10/05 02:03:54;;;;;;;22.90;13.68;;;5.10;99.90;;;;;;5065219;28;20055;-80
2023/10/05 02:06:20;;;;;;;27.40;15.60;;;5.20;99.90;;;;;;5061948;28;20012;-85
2023/10/05 02:08:45;;;;;;;23.48;16.77;;;5.20;99.90;;;;;;5075114;28;20040;-85
2023/10/05 02:11:23;;;;;;;29.70;18.05;;;5.10;99.90;;;;;;5072417;28;20477;-85
2023/10/05 02:13:49;;;;;;;26.35;16.60;;;5.20;99.90;;;;;;5074210;28;20482;-80
2023/10/05 02:16:18;;;;;;;26.10;16.58;;;5.20;99.90;;;;;;5074284;28;20016;-79
2023/10/05 02:18:43;;;;;;;32.10;19.33;;;5.10;99.90;;;;;;5074272;28;20074;-79
2023/10/05 02:21:28;;;;;;;23.17;15.20;;;5.20;99.90;;;;;;5055472;28;20017;-85
2023/10/05 02:23:57;;;;;;;21.20;15.02;;;5.20;99.90;;;;;;5058010;28;20028;-84
2023/10/05 02:26:33;;;;;;;20.23;14.35;;;5.20;99.90;;;;;;5062546;28;20367;-79
2023/10/05 02:28:59;;;;;;;18.73;14.43;;;5.10;99.90;;;;;;5074794;28;20025;-80
2023/10/05 02:31:28;;;;;;;17.98;13.52;;;5.00;99.90;;;;;;5070986;28;20478;-79
2023/10/05 02:33:56;;;;;;;21.08;14.43;;;5.00;99.90;;;;;;5071291;28;20600;-85
2023/10/05 02:36:26;;;;;;;24.60;15.23;;;5.00;99.90;;;;;;5074146;28;20025;-85
2023/10/05 02:38:55;;;;;;;20.50;14.55;;;5.00;99.90;;;;;;5073161;28;20444;-79
2023/10/05 02:41:39;;;;;;;21.83;14.57;;;5.00;99.90;;;;;;5071320;28;20097;-84
2023/10/05 02:44:17;;;;;;;20.95;14.95;;;5.00;99.90;;;;;;5061396;28;20032;-85
2023/10/05 02:46:47;;;;;;;21.38;14.82;;;5.00;99.90;;;;;;5073213;28;20085;-78
2023/10/05 02:49:16;;;;;;;26.65;15.38;;;5.00;99.90;;;;;;5072263;28;20039;-86
2023/10/05 02:51:43;;;;;;;20.85;14.88;;;5.00;99.90;;;;;;5057897;28;20044;-85
2023/10/05 02:54:10;;;;;;;24.85;15.25;;;5.10;99.90;;;;;;5073059;28;20478;-79
2023/10/05 02:56:37;;;;;;;20.23;14.27;;;5.10;99.90;;;;;;5067678;28;20036;-85
2023/10/05 02:59:07;;;;;;;19.30;14.65;;;5.10;99.90;;;;;;5058982;28;20032;-85
2023/10/05 03:01:34;;;;;;;20.20;14.35;;;5.10;99.90;;;;;;5061072;28;20111;-79
2023/10/05 03:04:21;;;;;;;23.33;13.90;;;5.20;99.90;;;;;;5065252;28;20025;-85
2023/10/05 03:06:48;;;;;;;22.95;15.40;;;5.20;99.90;;;;;;5062828;28;20021;-79
2023/10/05 03:09:14;;;;;;;21.52;14.32;;;5.20;99.90;;;;;;5062718;28;20418;-85
2023/10/05 03:11:42;;;;;;;22.35;15.13;;;5.30;99.90;;;;;;5063774;28;20021;-85
2023/10/05 03:14:11;;;;;;;21.63;13.60;;;5.40;99.90;;;;;;5061045;28;20033;-85
2023/10/05 03:16:47;;;;;;;21.95;14.23;;;5.40;99.90;;;;;;5063313;28;20029;-79
2023/10/05 03:19:20;;;;;;;17.27;12.60;;;5.40;99.90;;;;;;5060772;28;20147;-78
2023/10/05 03:21:47;;;;;;;22.27;13.77;;;5.40;99.90;;;;;;5048668;28;20045;-85
2023/10/05 03:24:15;;;;;;;18.63;13.23;;;5.40;99.90;;;;;;5041609;28;20110;-85
2023/10/05 03:26:42;;;;;;;29.92;15.93;;;5.40;99.90;;;;;;5053999;28;20044;-79
2023/10/05 03:29:11;;;;;;;20.95;12.77;;;5.40;99.90;;;;;;5053373;28;20470;-79
2023/10/05 03:32:04;;;;;;;18.42;11.93;;;5.40;99.90;;;;;;5053987;28;20037;-84
2023/10/05 03:34:31;;;;;;;18.60;12.45;;;5.50;99.90;;;;;;5041233;28;20033;-85
2023/10/05 03:37:08;;;;;;;20.70;13.85;;;5.40;99.90;;;;;;5051759;28;20160;-85
2023/10/05 03:39:39;;;;;;;20.98;13.98;;;5.40;99.90;;;;;;5046373;28;20128;-85
2023/10/05 03:42:13;;;;;;;21.33;13.98;;;5.30;99.90;;;;;;5054987;28;20474;-84
2023/10/05 03:44:39;;;;;;;20.88;13.05;;;5.30;99.90;;;;;;5054254;28;20025;-85
2023/10/05 03:47:05;;;;;;;26.50;16.13;;;5.20;99.90;;;;;;5059971;28;20124;-84
2023/10/05 03:49:31;;;;;;;23.10;15.88;;;5.20;99.90;;;;;;5055978;28;20025;-85
2023/10/05 03:51:56;;;;;;;21.63;15.48;;;5.10;99.90;;;;;;5050003;28;20132;-85
2023/10/05 03:54:25;;;;;;;21.33;14.75;;;5.10;99.90;;;;;;5068440;28;20517;-85
2023/10/05 03:57:04;;;;;;;24.00;15.57;;;5.10;99.90;;;;;;5063158;28;20029;-85
2023/10/05 03:59:33;;;;;;;19.15;12.80;;;5.10;99.90;;;;;;5056683;28;20029;-85
2023/10/05 04:02:00;;;;;;;18.85;13.43;;;5.10;99.90;;;;;;5052413;28;20099;-78
2023/10/05 04:04:34;;;;;;;21.67;15.10;;;5.10;99.90;;;;;;5058322;28;20095;-78
2023/10/05 04:07:03;;;;;;;20.50;15.95;;;5.00;99.90;;;;;;5058699;28;20202;-78
2023/10/05 04:09:34;;;;;;;19.10;14.10;;;5.00;99.90;;;;;;5055634;28;20032;-78
2023/10/05 04:12:00;;;;;;;20.70;15.00;;;4.90;99.90;;;;;;5055040;28;20033;-78
2023/10/05 04:14:26;;;;;;;20.83;15.27;;;4.90;99.90;;;;;;5052244;28;20544;-78
2023/10/05 04:16:53;;;;;;;19.52;13.80;;;4.80;99.90;;;;;;5052872;28;20018;-78
2023/10/05 04:19:19;;;;;;;20.98;13.63;;;4.80;99.90;;;;;;5053698;28;20013;-78
2023/10/05 04:21:46;;;;;;;19.48;13.38;;;4.80;99.90;;;;;;5060733;28;20020;-86
2023/10/05 04:24:15;;;;;;;20.25;13.10;;;4.80;99.90;;;;;;5065627;28;20036;-85
2023/10/05 04:26:45;;;;;;;18.35;12.63;;;4.70;99.90;;;;;;5069061;28;20015;-85
2023/10/05 04:29:12;;;;;;;17.67;12.25;;;4.70;99.90;;;;;;5065612;28;20070;-79
2023/10/05 04:31:38;;;;;;;19.52;13.40;;;4.70;99.90;;;;;;5061558;28;20482;-79
2023/10/05 04:34:11;;;;;;;17.55;13.52;;;4.70;99.90;;;;;;5065965;28;20218;-85
2023/10/05 04:36:40;;;;;;;18.98;12.32;;;4.70;99.90;;;;;;5065329;28;20022;-84
2023/10/05 04:39:06;;;;;;;16.65;11.40;;;4.60;99.90;;;;;;5067337;28;20056;-78
2023/10/05 04:41:38;;;;;;;17.92;11.25;;;4.60;99.90;;;;;;5067987;28;20031;-79
2023/10/05 04:44:11;;;;;;;18.60;10.98;;;4.60;99.90;;;;;;5070890;28;20024;-84
2023/10/05 04:46:37;;;;;;;14.68;10.45;;;4.60;99.90;;;;;;5059779;28;20441;-79
2023/10/05 04:49:08;;;;;;;14.82;10.32;;;4.60;99.90;;;;;;5064504;28;20036;-79
2023/10/05 04:51:38;;;;;;;17.27;10.93;;;4.60;99.90;;;;;;5060457;28;20055;-79
2023/10/05 04:54:04;;;;;;;17.42;10.85;;;4.60;99.90;;;;;;5053757;28;20036;-84
2023/10/05 05:07:12;;;;;;;19.15;12.35;;;4.50;99.90;;;;;;5055341;28;20063;-84
2023/10/05 05:09:43;;;;;;;21.58;13.52;;;4.50;99.90;;;;;;5049339;28;20033;-83
2023/10/05 05:12:16;;;;;;;18.23;12.75;;;4.50;99.90;;;;;;5051916;28;20111;-83
2023/10/05 05:14:42;;;;;;;23.08;13.52;;;4.60;99.90;;;;;;5046116;28;20505;-84
2023/10/05 05:17:12;;;;;;;20.23;13.15;;;4.50;99.90;;;;;;5044107;28;20457;-83
2023/10/05 05:19:41;;;;;;;20.40;13.73;;;4.40;99.90;;;;;;5049496;28;20083;-84
2023/10/05 05:22:08;;;;;;;22.58;11.57;;;4.40;99.90;;;;;;5047612;28;20029;-83
2023/10/05 05:24:35;;;;;;;20.42;13.10;;;4.40;99.90;;;;;;5050941;28;20068;-83
2023/10/05 05:27:11;;;;;;;17.50;11.35;;;4.40;99.90;;;;;;5049056;28;20040;-84
2023/10/05 05:29:38;;;;;;;14.00;9.65;;;4.40;99.90;;;;;;5049921;28;20045;-84
2023/10/05 05:32:13;;;;;;;15.73;10.18;;;4.50;99.90;;;;;;5050322;28;20017;-84
2023/10/05 05:34:41;;;;;;;16.83;11.88;;;4.40;99.90;;;;;;5051016;28;20108;-83
2023/10/05 05:39:55;;;;;;;14.70;9.20;;;4.40;99.90;;;;;;5054607;28;20055;-82
2023/10/05 05:42:25;;;;;;;14.27;9.38;;;4.50;99.90;;;;;;5053915;28;20021;-83
2023/10/05 05:44:52;;;;;;;15.60;10.20;;;4.50;99.90;;;;;;5054646;28;20028;-83
2023/10/05 05:47:18;;;;;;;17.73;12.40;;;4.60;99.90;;;;;;5070073;28;20028;-83
2023/10/05 05:49:46;;;;;;;20.33;12.82;;;4.70;99.90;;;;;;5048592;28;20116;-83
2023/10/05 05:52:15;;;;;;;16.98;12.48;;;4.80;99.90;;;;;;5064218;28;20025;-79
2023/10/05 05:54:42;;;;;;;13.93;10.30;;;5.00;99.90;;;;;;5061520;28;21536;-84
2023/10/05 05:57:11;;;;;;;19.70;11.90;;;5.10;99.90;;;;;;5052024;28;20044;-78
2023/10/05 05:59:41;;;;;;;19.92;11.95;;;5.30;99.90;;;;;;5058046;28;20024;-83
2023/10/05 06:02:10;;;;;;;19.95;13.80;;;5.40;99.90;;;;;;5056492;28;20089;-84
2023/10/05 06:04:41;;;;;;;18.98;12.52;;;5.50;99.90;;;;;;5058265;28;20622;-78
2023/10/05 06:07:13;;;;;;;18.88;12.00;;;5.70;99.90;;;;;;5054613;28;20732;-83
2023/10/05 06:09:42;;;;;;;15.40;11.90;;;5.80;99.90;;;;;;5046872;28;20041;-83
2023/10/05 06:12:10;;;;;;;15.43;11.02;;;6.10;99.90;;;;;;5052350;28;20060;-84
2023/10/05 06:14:40;;;;;;;20.58;11.20;;;6.30;99.90;;;;;;5052694;28;20028;-84
2023/10/05 06:17:09;;;;;;;18.45;12.30;;;6.50;99.90;;;;;;5053420;28;20036;-82
2023/10/05 06:19:36;;;;;;;18.90;12.57;;;6.70;99.90;;;;;;5051516;28;20032;-84
2023/10/05 06:22:03;;;;;;;27.10;12.90;;;6.90;99.90;;;;;;5049592;28;20506;-83
2023/10/05 06:24:30;;;;;;;22.63;13.75;;;7.00;99.90;;;;;;5051892;28;20221;-83
2023/10/05 06:26:55;;;;;;;26.27;14.85;;;7.20;99.90;;;;;;5049796;28;20045;-84
2023/10/05 06:29:21;;;;;;;27.83;14.63;;;7.40;99.90;;;;;;5058701;28;20021;-84
2023/10/05 06:31:46;;;;;;;21.67;12.85;;;7.70;99.90;;;;;;5068611;28;20513;-84
2023/10/05 06:34:12;;;;;;;22.30;13.55;;;7.70;99.90;;;;;;5066954;28;20032;-84
2023/10/05 06:36:39;;;;;;;21.70;13.90;;;7.90;99.90;;;;;;5067532;28;20119;-83
2023/10/05 06:39:14;;;;;;;19.77;12.77;;;8.10;99.90;;;;;;5068154;28;20425;-84
2023/10/05 06:41:42;;;;;;;20.45;12.43;;;8.30;99.90;;;;;;5065903;28;20516;-84
2023/10/05 06:44:10;;;;;;;17.80;11.20;;;8.50;99.90;;;;;;5072472;28;20025;-84
2023/10/05 06:46:36;;;;;;;18.95;11.70;;;8.80;99.90;;;;;;5068165;28;20017;-83
2023/10/05 06:49:05;;;;;;;16.23;10.82;;;9.00;99.90;;;;;;5072018;28;20036;-84
2023/10/05 06:51:31;;;;;;;18.00;10.60;;;9.30;99.90;;;;;;5063672;28;20104;-83
2023/10/05 06:53:59;;;;;;;18.83;10.93;;;9.40;99.90;;;;;;5058086;28;20461;-84
2023/10/05 06:56:29;;;;;;;15.35;8.90;;;9.50;99.90;;;;;;5058223;28;20075;-84
2023/10/05 06:58:54;;;;;;;18.33;9.20;;;9.60;99.90;;;;;;5050935;28;20028;-84
2023/10/05 07:01:20;;;;;;;14.13;8.95;;;9.60;99.90;;;;;;5055576;28;20036;-85
2023/10/05 07:03:58;;;;;;;17.75;10.05;;;9.60;99.90;;;;;;5058186;28;20112;-85
2023/10/05 07:06:29;;;;;;;13.48;9.48;;;9.70;99.90;;;;;;5049916;28;20021;-84
2023/10/05 07:08:55;;;;;;;16.92;9.50;;;9.70;99.90;;;;;;5065320;28;20482;-84
2023/10/05 07:11:22;;;;;;;14.80;8.93;;;9.70;99.90;;;;;;5061703;28;20079;-85
2023/10/05 07:13:48;;;;;;;18.35;11.27;;;9.80;99.90;;;;;;5066051;28;20020;-84
2023/10/05 07:16:14;;;;;;;16.05;10.55;;;10.00;99.90;;;;;;5059935;28;20425;-85
2023/10/05 07:18:40;;;;;;;13.77;9.57;;;10.10;99.90;;;;;;5059925;28;20458;-85
2023/10/05 07:21:08;;;;;;;17.80;10.77;;;10.20;99.90;;;;;;5053275;28;20035;-85
2023/10/05 07:23:37;;;;;;;16.48;10.68;;;10.20;99.90;;;;;;5064078;28;20024;-84
2023/10/05 07:26:07;;;;;;;17.42;9.27;;;10.30;99.90;;;;;;5055450;28;20025;-85
2023/10/05 07:28:36;;;;;;;19.58;9.35;;;10.40;99.90;;;;;;5065436;28;20028;-85
2023/10/05 07:31:05;;;;;;;18.80;10.15;;;10.40;99.90;;;;;;5043827;28;20071;-85
2023/10/05 07:33:33;;;;;;;14.60;9.00;;;10.50;99.90;;;;;;5054888;28;20029;-85
2023/10/05 07:35:59;;;;;;;15.43;8.73;;;10.50;99.90;;;;;;5045511;28;20034;-83
2023/10/05 07:38:28;;;;;;;12.73;9.38;;;10.60;99.90;;;;;;5059762;28;20558;-85
2023/10/05 07:40:57;;;;;;;16.38;8.43;;;10.70;99.90;;;;;;5070719;28;20462;-85
2023/10/05 07:43:23;;;;;;;19.50;8.82;;;10.80;99.90;;;;;;5068369;28;20480;-85
2023/10/05 07:45:49;;;;;;;14.63;8.77;;;10.80;99.90;;;;;;5064012;28;20013;-85
2023/10/05 07:48:15;;;;;;;16.30;7.97;;;10.90;99.90;;;;;;5058442;28;20028;-85
2023/10/05 07:50:41;;;;;;;11.20;6.95;;;11.00;99.90;;;;;;5056148;28;20028;-85
2023/10/05 07:53:07;;;;;;;11.88;7.32;;;11.00;99.90;;;;;;5049995;28;20094;-86
2023/10/05 07:55:35;;;;;;;13.65;8.40;;;11.10;99.90;;;;;;5047235;28;20037;-85
2023/10/05 07:58:02;;;;;;;12.73;6.88;;;11.40;99.90;;;;;;5047878;28;20058;-85
2023/10/05 08:00:28;;;;;;;10.40;5.97;;;11.40;99.90;;;;;;5049390;28;20065;-85
2023/10/05 08:02:53;;;;;;;14.32;6.65;;;11.50;99.90;;;;;;5055105;28;20103;-85
2023/10/05 08:05:19;;;;;;;11.05;6.97;;;11.50;99.90;;;;;;5047687;28;20033;-85
2023/10/05 08:07:45;;;;;;;15.88;7.10;;;11.50;99.90;;;;;;5046260;28;20043;-86
2023/10/05 08:10:18;;;;;;;11.90;5.68;;;11.60;99.90;;;;;;5053255;28;20041;-86
2023/10/05 08:12:45;;;;;;;12.10;5.82;;;11.70;99.90;;;;;;5056240;28;20102;-85
2023/10/05 08:15:18;;;;;;;13.27;5.93;;;11.90;99.90;;;;;;5051612;28;20555;-86
2023/10/05 08:17:53;;;;;;;11.43;5.13;;;12.00;99.90;;;;;;5055377;28;20543;-85
2023/10/05 08:20:20;;;;;;;10.40;5.55;;;12.20;99.90;;;;;;5051792;28;20021;-84
2023/10/05 08:22:46;;;;;;;9.23;5.50;;;12.30;99.90;;;;;;5053508;28;20040;-86
2023/10/05 08:25:12;;;;;;;9.63;5.38;;;12.50;99.90;;;;;;5053799;28;20436;-86
2023/10/05 08:27:39;;;;;;;9.30;4.78;;;12.70;99.90;;;;;;5048189;28;20045;-86
2023/10/05 08:30:06;;;;;;;13.60;5.70;;;12.80;99.90;;;;;;5041807;28;20029;-86
2023/10/05 08:32:33;;;;;;;7.40;5.35;;;13.00;99.90;;;;;;5054395;28;20479;-86
2023/10/05 08:35:07;;;;;;;8.88;4.20;;;13.20;99.90;;;;;;5065904;28;20036;-86
2023/10/05 08:37:42;;;;;;;10.98;4.57;;;13.40;99.90;;;;;;5041150;28;20538;-85
2023/10/05 08:43:09;;;;;;;8.60;3.88;;;13.60;99.90;;;;;;5070038;28;20032;-86
2023/10/05 08:45:51;;;;;;;6.53;4.10;;;13.60;99.90;;;;;;5082951;28;20017;-86
2023/10/05 08:48:30;;;;;;;7.80;3.93;;;13.50;99.90;;;;;;5077825;28;20051;-86
2023/10/05 08:51:12;;;;;;;8.32;3.17;;;13.50;99.90;;;;;;5053075;28;20467;-86
2023/10/05 08:53:43;;;;;;;6.70;3.65;;;13.50;99.90;;;;;;5038779;28;20028;-86
2023/10/05 08:56:15;;;;;;;8.15;3.15;;;13.50;99.90;;;;;;5055791;28;20013;-86
2023/10/05 08:58:48;;;;;;;7.50;3.35;;;13.40;99.90;;;;;;5047369;28;20068;-87
2023/10/05 09:01:33;;;;;;;4.68;3.05;;;13.50;99.90;;;;;;5053489;28;20398;-86
2023/10/05 09:04:11;;;;;;;4.38;2.90;;;13.70;99.90;;;;;;5055903;28;20078;-87
2023/10/05 09:06:57;;;;;;;5.80;2.80;;;13.70;99.20;;;;;;5062823;28;20028;-86
2023/10/05 09:09:54;;;;;;;9.15;3.95;;;13.80;99.90;;;;;;5053167;28;20025;-87
2023/10/05 09:12:42;;;;;;;5.30;2.75;;;14.00;98.10;;;;;;5051239;28;20114;-87
2023/10/05 09:15:27;;;;;;;6.65;3.33;;;14.10;95.40;;;;;;5061360;28;20024;-86
2023/10/05 09:17:58;;;;;;;7.55;5.47;;;14.30;97.70;;;;;;5070805;28;20047;-78
2023/10/05 09:20:33;;;;;;;7.65;3.13;;;14.50;96.00;;;;;;5057416;28;20037;-86
2023/10/05 09:23:04;;;;;;;5.97;3.20;;;14.60;92.60;;;;;;5068383;28;20021;-79
2023/10/05 09:25:44;;;;;;;7.05;2.88;;;14.70;89.40;;;;;;5057093;28;20104;-78
2023/10/05 09:28:19;;;;;;;8.75;3.38;;;14.80;87.30;;;;;;5069569;28;20020;-79
2023/10/05 09:30:59;;;;;;;6.30;2.97;;;15.00;86.70;;;;;;5067751;28;20055;-79
2023/10/05 09:33:27;;;;;;;4.88;2.90;;;15.10;86.10;;;;;;5061542;28;20021;-88
2023/10/05 09:36:01;;;;;;;7.07;3.17;;;15.20;84.70;;;;;;5068984;28;20646;-88
2023/10/05 09:38:30;;;;;;;5.30;2.78;;;15.30;83.70;;;;;;5060405;28;20052;-79
2023/10/05 09:40:58;;;;;;;9.45;3.38;;;15.40;81.90;;;;;;5054132;28;20029;-87
2023/10/05 09:43:27;;;;;;;5.35;3.03;;;15.40;81.90;;;;;;5059282;28;20400;-79
2023/10/05 09:45:54;;;;;;;9.18;2.80;;;15.50;82.40;;;;;;5058385;28;20024;-87
2023/10/05 09:48:21;;;;;;;6.97;3.33;;;15.60;79.70;;;;;;5066132;28;20027;-87
2023/10/05 09:50:48;;;;;;;6.68;3.00;;;15.70;80.90;;;;;;5067529;28;20031;-79
2023/10/05 09:53:18;;;;;;;7.25;2.88;;;15.70;78.30;;;;;;5064646;28;20021;-80
2023/10/05 09:55:49;;;;;;;7.95;2.85;;;15.60;77.00;;;;;;5070236;28;20382;-80
2023/10/05 09:58:18;;;;;;;8.48;3.63;;;15.50;76.30;;;;;;5055314;28;20063;-80
2023/10/05 10:03:10;;;;;;;4.75;3.13;;;15.50;74.00;;;;;;5059178;28;20039;-79
2023/10/05 10:05:48;;;;;;;7.40;3.55;;;15.70;75.10;;;;;;5058965;28;20030;-88
2023/10/05 10:08:23;;;;;;;6.75;3.10;;;15.80;75.00;;;;;;5052996;28;20074;-87
2023/10/05 10:11:17;;;;;;;8.30;4.40;;;15.80;73.30;;;;;;5055188;28;20037;-85
2023/10/05 10:13:59;;;;;;;10.48;4.95;;;15.80;72.00;;;;;;5065943;28;20086;-88
2023/10/05 10:16:27;;;;;;;8.25;4.60;;;15.90;70.60;;;;;;5051294;28;20127;-88
2023/10/05 10:19:18;;;;;;;5.20;3.10;;;16.00;71.20;;;;;;5052972;28;20025;-88
2023/10/05 10:21:46;;;;;;;9.48;4.05;;;16.00;70.50;;;;;;5055730;28;20067;-88
2023/10/05 10:24:17;;;;;;;9.57;4.78;;;16.10;68.30;;;;;;5052568;28;20024;-88
2023/10/05 10:27:15;;;;;;;9.50;3.92;;;16.10;68.30;;;;;;5054031;28;20021;-87
2023/10/05 10:29:55;;;;;;;7.32;3.45;;;16.20;67.80;;;;;;5053461;28;20037;-87
2023/10/05 10:32:22;;;;;;;7.65;3.13;;;16.30;66.20;;;;;;5069814;28;20377;-88
2023/10/05 10:34:55;;;;;;;8.52;3.90;;;16.30;65.30;;;;;;5059412;28;20037;-88
2023/10/05 10:37:39;;;;;;;9.40;3.88;;;16.30;65.70;;;;;;5054535;28;20036;-89
2023/10/05 10:40:27;;;;;;;7.72;4.13;;;16.50;66.60;;;;;;5061088;28;20048;-89
2023/10/05 10:42:55;;;;;;;9.38;4.43;;;16.40;64.70;;;;;;5056574;28;20382;-88
2023/10/05 10:45:23;;;;;;;8.32;3.33;;;16.50;65.60;;;;;;5054604;28;20024;-88
2023/10/05 10:47:51;;;;;;;7.13;3.50;;;16.50;66.80;;;;;;5059593;28;20021;-88
2023/10/05 10:50:22;;;;;;;7.63;4.25;;;16.60;66.10;;;;;;5060899;28;20037;-88
2023/10/05 10:52:55;;;;;;;7.32;3.63;;;16.70;65.90;;;;;;5065068;28;20040;-79
2023/10/05 10:55:21;;;;;;;;;;;16.70;66.00;;;;;;5063098;28;20103;-88
2023/10/05 10:57:48;;;;;;;6.72;2.35;;;16.90;67.30;;;;;;5063649;28;19944;-89
2023/10/05 11:03:09;;;;;;;7.13;3.10;;;17.00;65.40;;;;;;5066421;28;20525;-90
2023/10/05 11:05:44;;;;;;;6.05;2.60;;;16.90;64.10;;;;;;5052209;28;20039;-89
2023/10/05 11:08:11;;;;;;;9.13;2.80;;;16.70;64.50;;;;;;5063844;28;20463;-89
2023/10/05 11:10:37;;;;;;;5.32;3.10;;;16.60;64.40;;;;;;5059447;28;20049;-89
2023/10/05 11:13:28;;;;;;;5.13;3.15;;;16.60;66.10;;;;;;5052601;28;20131;-89
2023/10/05 11:16:00;;;;;;;4.60;2.60;;;16.70;67.50;;;;;;5061203;28;20124;-89
2023/10/05 11:18:39;;;;;;;4.63;2.20;;;16.90;68.60;;;;;;5060908;28;20025;-89
2023/10/05 11:21:32;;;;;;;5.50;2.63;;;17.00;68.80;;;;;;5043190;28;20032;-89
2023/10/05 11:24:00;;;;;;;;;;;16.80;67.30;;;;;;5052071;28;20041;-89
2023/10/05 11:26:28;;;;;;;7.22;2.90;;;16.60;67.00;;;;;;5044482;28;19997;-86
2023/10/05 11:28:55;;;;;;;4.88;2.60;;;16.60;67.90;;;;;;5053547;28;20033;-89
2023/10/05 11:31:24;;;;;;;4.93;2.75;;;16.40;67.60;;;;;;5053580;28;20029;-89
2023/10/05 11:33:53;;;;;;;6.15;2.30;;;16.40;67.60;;;;;;5052339;28;20139;-88
2023/10/05 11:36:22;;;;;;;7.68;2.55;;;16.40;68.60;;;;;;5052678;28;20033;-90
2023/10/05 11:38:57;;;;;;;6.03;2.33;;;16.60;69.10;;;;;;5048140;28;20122;-87
2023/10/05 11:41:41;;;;;;;4.60;2.67;;;16.70;68.60;;;;;;5044973;28;20394;-87
2023/10/05 11:44:11;;;;;;;6.78;2.17;;;16.80;68.60;;;;;;5067546;28;20017;-87
2023/10/05 11:46:46;;;;;;;6.45;2.47;;;17.00;67.70;;;;;;5047784;28;20411;-88
2023/10/05 11:49:16;;;;;;;8.23;4.30;;;17.10;66.10;;;;;;5051015;28;20044;-88
2023/10/05 11:51:56;;;;;;;17.60;8.25;;;17.20;66.00;;;;;;5054220;28;20028;-90
2023/10/05 11:54:29;;;;;;;8.43;4.32;;;17.10;63.20;;;;;;5071275;28;20028;-87
2023/10/05 11:56:56;;;;;;;12.07;3.65;;;16.90;63.00;;;;;;5065016;28;20079;-89
2023/10/05 11:59:29;;;;;;;8.63;4.00;;;16.80;62.70;;;;;;5050095;28;20033;-88
2023/10/05 12:01:55;;;;;;;10.32;6.47;;;16.80;62.60;;;;;;5044367;28;20116;-89
2023/10/05 12:04:23;;;;;;;9.45;4.60;;;16.60;61.80;;;;;;5062342;28;20021;-88
2023/10/05 12:06:58;;;;;;;6.65;4.07;;;16.60;61.80;;;;;;5062909;28;20059;-84
2023/10/05 12:09:34;;;;;;;7.85;4.28;;;16.60;62.80;;;;;;5058017;28;20040;-88
2023/10/05 12:12:01;;;;;;;12.63;8.50;;;16.60;62.40;;;;;;5055556;28;20017;-87
2023/10/05 12:14:27;;;;;;;10.88;6.53;;;16.60;61.90;;;;;;5053062;28;20017;-88
2023/10/05 12:16:57;;;;;;;17.45;9.18;;;16.60;62.20;;;;;;5063633;28;20103;-87
2023/10/05 12:19:29;;;;;;;8.43;5.43;;;16.60;62.70;;;;;;5067477;28;20013;-85
2023/10/05 12:21:59;;;;;;;19.17;9.13;;;16.60;61.50;;;;;;5066179;28;20040;-86
2023/10/05 12:24:26;;;;;;;13.13;7.53;;;16.50;62.30;;;;;;5055293;28;20017;-85
2023/10/05 12:26:53;;;;;;;15.98;7.93;;;16.60;62.90;;;;;;5066694;28;20075;-85
2023/10/05 12:29:19;;;;;;;9.18;5.05;;;16.60;63.50;;;;;;5072074;28;20040;-86
2023/10/05 12:31:47;;;;;;;9.27;4.93;;;16.50;63.00;;;;;;5058046;28;20017;-85
2023/10/05 12:34:16;;;;;;;7.35;4.80;;;16.40;63.00;;;;;;5051839;28;20397;-84
2023/10/05 12:36:49;;;;;;;8.25;3.67;;;16.40;63.80;;;;;;5051186;28;20017;-85
2023/10/05 12:39:27;;;;;;;4.82;2.80;;;16.30;64.60;;;;;;5046789;28;20053;-85
2023/10/05 12:41:54;;;;;;;7.35;3.53;;;16.40;64.90;;;;;;5051288;28;20708;-85
2023/10/05 12:44:21;;;;;;;9.55;3.78;;;16.40;64.30;;;;;;5049632;28;20028;-87
2023/10/05 12:46:47;;;;;;;10.38;4.30;;;16.30;64.80;;;;;;5060471;28;20017;-85
2023/10/05 12:49:17;;;;;;;9.05;4.47;;;16.30;65.30;;;;;;5055740;28;20490;-86
2023/10/05 12:51:44;;;;;;;8.50;3.35;;;16.30;65.50;;;;;;5045626;28;20031;-86
2023/10/05 12:54:19;;;;;;;7.13;3.10;;;16.40;65.80;;;;;;5051267;28;20112;-86
2023/10/05 12:56:51;;;;;;;17.08;9.52;;;16.40;64.60;;;;;;5042754;28;20087;-86
2023/10/05 12:59:21;;;;;;;37.63;19.75;;;16.40;66.30;;;;;;5049702;28;20040;-85
2023/10/05 13:01:48;;;;;;;45.10;23.33;;;16.40;65.40;;;;;;5050313;28;20021;-85
2023/10/05 13:04:22;;;;;;;33.63;18.00;;;16.40;65.70;;;;;;5049721;28;20052;-87
2023/10/05 13:07:05;;;;;;;33.15;18.35;;;16.30;66.10;;;;;;5054807;28;20115;-89
2023/10/05 13:09:32;;;;;;;18.08;8.95;;;16.30;65.70;;;;;;5051970;28;20625;-86
2023/10/05 13:11:58;;;;;;;24.23;13.82;;;16.40;65.70;;;;;;5070068;28;20490;-86
2023/10/05 13:14:24;;;;;;;13.18;6.63;;;16.40;64.70;;;;;;5071804;28;20094;-85
2023/10/05 13:16:54;;;;;;;10.27;7.68;;;16.50;65.00;;;;;;5051074;28;20048;-85
2023/10/05 13:19:20;;;;;;;12.00;5.80;;;16.50;65.10;;;;;;5052225;28;20457;-85
2023/10/05 13:21:46;;;;;;;5.20;3.17;;;16.40;64.80;;;;;;5044097;28;20036;-85
2023/10/05 13:24:12;;;;;;;4.88;3.50;;;16.40;65.30;;;;;;5067194;28;20596;-87